Upstream stations:
Downstream station:
SHEF ID: WANO2 Cimarron River near Waynoka, OK
STATION TYPE:
Regulating: Stage = 9.00, Flow = 4005
PRECIP STAGE RIV-FLOW BAT-LOAD
in ft cfs volt
Ccp-Rev Ccp-Rev Ccp-Rev Ccp-Rev
(US/Central)
01/28 00:00 0.00 5.64 34 12.73
01/28 01:00 0.00 5.63 32 12.73
01/28 02:00 0.00 5.64 34 12.65
01/28 03:00 0.00 5.63 32 12.65
01/28 04:00 0.00 5.64 34 12.65
01/28 05:00 0.00 5.63 32 12.65
01/28 06:00 0.00 5.64 34 12.65
01/28 07:00 0.00 5.65 36 12.57
01/28 08:00 0.00 5.65 36 12.57
01/28 09:00 0.00 5.62 31 12.65
01/28 10:00 0.00 5.66 37 13.29
01/28 11:00 0.00 5.65 36 14.00
01/28 12:00 0.00 5.62 31 13.84
01/28 13:00 0.00 5.62 31 13.68
01/28 14:00 0.00 5.61 29 13.68
01/28 15:00 0.00 5.63 32 13.68
01/28 16:00 0.00 5.60 28 13.68
01/28 17:00 0.00 5.60 28 13.68
01/28 18:00 0.00 5.64 34 13.53
01/28 19:00 0.00 5.64 34 13.21
01/28 20:00 0.00 5.64 34 12.97
01/28 21:00 0.00 5.64 34 12.81
01/28 22:00 0.00 5.63 32 12.81
01/28 23:00 0.00 5.63 32 12.73